Trine Charlotte — LMRY — position and weather

sailwx.info

Track history (hours):
 
Tides and Currents Weather Stations Pressure Air Temp Water Temp Dewpoint Dewpoint Depression Visibility Wind Speed Wind Dir Waves Ship Positions

Trine Charlotte

Last reported at 2015-Jan-27 22:16 UTC. Time now 2015-Feb-01 05:42 UTC.
Position N 70°27' E 023°41'.

Length 66 m; draft 4.6 m.

Type: Wing in ground effect craft. MMSI: 257233000.

Date/timePositionNaut miles runAvg speedWind from/ knotsBaromVisibWave heightAir tempDewpointWater temp
2015-Jan-27 22:16N 70°27' E 023°41'253 5.1
2015-Jan-25 20:18N 67°36' E 014°58'  
2015-Jan-21 23:32N 67°37' E 014°42'6 9.0
2015-Jan-21 22:50N 67°36' E 014°59'10 0.7
2015-Jan-21 09:14N 67°38' E 014°34'153 5.0
2015-Jan-20 02:33N 69°38' E 018°56'87 8.6
2015-Jan-19 16:26N 70°28' E 022°26'8 9.1
2015-Jan-19 15:34N 70°30' E 022°48'9 8.7
2015-Jan-19 14:33N 70°35' E 023°10'9 8.7
2015-Jan-19 13:33N 70°39' E 023°33'3 2.6
2015-Jan-19 12:33N 70°40' E 023°40'0 0.0
2015-Jan-19 11:33N 70°40' E 023°40'0 0.0
2015-Jan-19 10:33N 70°40' E 023°40'0 0.0
2015-Jan-19 09:33N 70°40' E 023°40'0 0.0
2015-Jan-19 08:33N 70°40' E 023°40'0 0.0
2015-Jan-19 07:33N 70°40' E 023°40'0 0.0
2015-Jan-19 06:33N 70°40' E 023°40'0 0.0
2015-Jan-19 05:33N 70°40' E 023°40'0 0.0
2015-Jan-19 04:33N 70°40' E 023°40'0 0.0
2015-Jan-19 03:33N 70°40' E 023°40'0 0.0
2015-Jan-19 02:33N 70°40' E 023°40'0 0.0
2015-Jan-19 01:33N 70°40' E 023°40'0 0.0
2015-Jan-19 00:33N 70°40' E 023°40'0 0.0
2015-Jan-18 23:33N 70°40' E 023°40'0 0.0
2015-Jan-18 22:33N 70°40' E 023°40'0 0.0
2015-Jan-18 21:33N 70°40' E 023°40'0 0.0
2015-Jan-18 20:33N 70°40' E 023°40'0 0.0
2015-Jan-18 19:33N 70°40' E 023°40'0 0.1
2015-Jan-18 18:33N 70°40' E 023°40'0 0.0
2015-Jan-18 17:33N 70°40' E 023°40'0 0.0
2015-Jan-18 16:33N 70°40' E 023°40'0 0.0
2015-Jan-18 15:33N 70°40' E 023°40'0 0.0
2015-Jan-18 14:34N 70°40' E 023°40'0 0.0
2015-Jan-18 13:33N 70°40' E 023°40'0 0.0
2015-Jan-18 12:33N 70°40' E 023°40'0 0.0
2015-Jan-18 11:33N 70°40' E 023°40'0 0.0
2015-Jan-18 10:33N 70°40' E 023°40'0 0.0
2015-Jan-18 09:33N 70°40' E 023°40'0 0.0
2015-Jan-18 08:33N 70°40' E 023°40'0 0.0
2015-Jan-18 07:33N 70°40' E 023°40'0 0.0
2015-Jan-18 06:33N 70°40' E 023°40'0 0.0
2015-Jan-18 05:33N 70°40' E 023°40'0 0.0
2015-Jan-18 04:33N 70°40' E 023°40'0 0.0
2015-Jan-18 03:33N 70°40' E 023°40'0 0.0
2015-Jan-18 02:33N 70°40' E 023°40'0 0.0
2015-Jan-18 01:33N 70°40' E 023°40'0 0.0
2015-Jan-18 00:33N 70°40' E 023°40'0 0.0
2015-Jan-17 23:33N 70°40' E 023°40'0 0.0
2015-Jan-17 22:33N 70°40' E 023°40'  
Track history (hours):
 
Tides and Currents Weather Stations Pressure Air Temp Water Temp Dewpoint Dewpoint Depression Visibility Wind Speed Wind Dir Waves Ship Positions

Trine Charlotte

Last reported at 2015-Jan-27 22:16 UTC. Time now 2015-Feb-01 05:42 UTC.
Position N 70°27' E 023°41'.

Length 66 m; draft 4.6 m.

Type: Wing in ground effect craft. MMSI: 257233000.

Date/timePositionNaut miles runAvg speedWind from/ knotsBaromVisibWave heightAir tempDewpointWater temp
2015-Jan-27 22:16N 70°27' E 023°41'253 5.1
2015-Jan-25 20:18N 67°36' E 014°58'  
2015-Jan-21 23:32N 67°37' E 014°42'6 9.0
2015-Jan-21 22:50N 67°36' E 014°59'10 0.7
2015-Jan-21 09:14N 67°38' E 014°34'153 5.0
2015-Jan-20 02:33N 69°38' E 018°56'87 8.6
2015-Jan-19 16:26N 70°28' E 022°26'8 9.1
2015-Jan-19 15:34N 70°30' E 022°48'9 8.7
2015-Jan-19 14:33N 70°35' E 023°10'9 8.7
2015-Jan-19 13:33N 70°39' E 023°33'3 2.6
2015-Jan-19 12:33N 70°40' E 023°40'0 0.0
2015-Jan-19 11:33N 70°40' E 023°40'0 0.0
2015-Jan-19 10:33N 70°40' E 023°40'0 0.0
2015-Jan-19 09:33N 70°40' E 023°40'0 0.0
2015-Jan-19 08:33N 70°40' E 023°40'0 0.0
2015-Jan-19 07:33N 70°40' E 023°40'0 0.0
2015-Jan-19 06:33N 70°40' E 023°40'0 0.0
2015-Jan-19 05:33N 70°40' E 023°40'0 0.0
2015-Jan-19 04:33N 70°40' E 023°40'0 0.0
2015-Jan-19 03:33N 70°40' E 023°40'0 0.0
2015-Jan-19 02:33N 70°40' E 023°40'0 0.0
2015-Jan-19 01:33N 70°40' E 023°40'0 0.0
2015-Jan-19 00:33N 70°40' E 023°40'0 0.0
2015-Jan-18 23:33N 70°40' E 023°40'0 0.0
2015-Jan-18 22:33N 70°40' E 023°40'0 0.0
2015-Jan-18 21:33N 70°40' E 023°40'0 0.0
2015-Jan-18 20:33N 70°40' E 023°40'0 0.0
2015-Jan-18 19:33N 70°40' E 023°40'0 0.1
2015-Jan-18 18:33N 70°40' E 023°40'0 0.0
2015-Jan-18 17:33N 70°40' E 023°40'0 0.0
2015-Jan-18 16:33N 70°40' E 023°40'0 0.0
2015-Jan-18 15:33N 70°40' E 023°40'0 0.0
2015-Jan-18 14:34N 70°40' E 023°40'0 0.0
2015-Jan-18 13:33N 70°40' E 023°40'0 0.0
2015-Jan-18 12:33N 70°40' E 023°40'0 0.0
2015-Jan-18 11:33N 70°40' E 023°40'0 0.0
2015-Jan-18 10:33N 70°40' E 023°40'0 0.0
2015-Jan-18 09:33N 70°40' E 023°40'0 0.0
2015-Jan-18 08:33N 70°40' E 023°40'0 0.0
2015-Jan-18 07:33N 70°40' E 023°40'0 0.0
2015-Jan-18 06:33N 70°40' E 023°40'0 0.0
2015-Jan-18 05:33N 70°40' E 023°40'0 0.0
2015-Jan-18 04:33N 70°40' E 023°40'0 0.0
2015-Jan-18 03:33N 70°40' E 023°40'0 0.0
2015-Jan-18 02:33N 70°40' E 023°40'0 0.0
2015-Jan-18 01:33N 70°40' E 023°40'0 0.0
2015-Jan-18 00:33N 70°40' E 023°40'0 0.0
2015-Jan-17 23:33N 70°40' E 023°40'0 0.0
2015-Jan-17 22:33N 70°40' E 023°40'  

Dump ship's entire track history